Time;durP1;ratioP1;P1;durP2;ratioP2;P2;SDS_P1;SDS_P2;PMS_P1;PMS_P2;Temp;Humidity;BMP_temperature;BMP_pressure;BME280_temperature;BME280_humidity;BME280_pressure;Samples;Min_cycle;Max_cycle;Signal;HPM_P1;HPM_P2
2023/03/29 00:00:11;;;;;;;1.52;0.50;;;19.50;54.50;;;;;;5073648;28;20048;-61
2023/03/29 00:02:37;;;;;;;1.42;0.70;;;19.50;54.50;;;;;;5075094;28;20044;-60
2023/03/29 00:05:03;;;;;;;1.83;0.60;;;19.50;54.50;;;;;;5056330;28;20392;-60
2023/03/29 00:07:32;;;;;;;1.55;0.52;;;19.50;54.60;;;;;;5074354;28;20051;-61
2023/03/29 00:09:58;;;;;;;2.08;0.73;;;19.50;54.60;;;;;;5074474;28;20484;-60
2023/03/29 00:12:24;;;;;;;1.15;0.50;;;19.50;54.60;;;;;;5074608;28;20056;-61
2023/03/29 00:14:49;;;;;;;1.08;0.50;;;19.40;54.50;;;;;;5073731;28;20106;-60
2023/03/29 00:17:15;;;;;;;1.30;0.70;;;19.50;54.50;;;;;;5073983;28;20395;-60
2023/03/29 00:19:43;;;;;;;2.20;0.80;;;19.40;54.50;;;;;;5074850;28;20040;-60
2023/03/29 00:22:08;;;;;;;1.38;0.73;;;19.40;54.50;;;;;;5073515;28;20072;-60
2023/03/29 00:24:34;;;;;;;2.08;0.77;;;19.40;54.50;;;;;;5074684;28;20080;-60
2023/03/29 00:26:59;;;;;;;2.53;0.70;;;19.40;54.50;;;;;;5073909;28;20090;-60
2023/03/29 00:29:25;;;;;;;1.73;0.77;;;19.40;54.50;;;;;;5073288;28;20041;-60
2023/03/29 00:31:53;;;;;;;1.83;0.70;;;19.40;54.50;;;;;;5074344;28;20488;-60
2023/03/29 00:34:25;;;;;;;2.20;0.73;;;19.40;54.60;;;;;;5056001;28;20504;-60
2023/03/29 00:36:51;;;;;;;2.58;0.57;;;19.40;54.60;;;;;;5073632;28;20041;-60
2023/03/29 00:39:20;;;;;;;2.60;0.70;;;19.40;54.60;;;;;;5074137;28;20048;-60
2023/03/29 00:41:47;;;;;;;1.25;0.50;;;19.30;54.50;;;;;;5056342;28;20036;-60
2023/03/29 00:44:50;;;;;;;1.42;0.60;;;19.30;54.50;;;;;;5073046;28;20048;-60
2023/03/29 00:47:17;;;;;;;1.30;0.50;;;19.30;54.50;;;;;;5073865;28;20102;-60
2023/03/29 00:49:43;;;;;;;1.60;0.55;;;19.30;54.60;;;;;;5055623;28;20128;-60
2023/03/29 00:52:09;;;;;;;1.30;0.60;;;19.30;54.50;;;;;;5039048;28;20488;-60
2023/03/29 00:54:36;;;;;;;1.95;0.60;;;19.30;54.50;;;;;;5073411;28;20044;-60
2023/03/29 00:57:02;;;;;;;2.10;0.60;;;19.30;54.50;;;;;;5072763;28;20492;-60
2023/03/29 00:59:28;;;;;;;1.95;0.70;;;19.30;54.50;;;;;;5039310;28;20483;-60
2023/03/29 01:02:00;;;;;;;1.83;0.70;;;19.30;54.50;;;;;;5055755;28;20090;-60
2023/03/29 01:04:31;;;;;;;2.45;0.88;;;19.30;54.60;;;;;;5038653;28;20040;-60
2023/03/29 01:07:06;;;;;;;1.95;0.80;;;19.30;54.60;;;;;;5056349;28;20053;-59
2023/03/29 01:09:33;;;;;;;1.58;0.57;;;19.30;54.60;;;;;;5055663;28;20080;-60
2023/03/29 01:12:00;;;;;;;2.20;0.70;;;19.30;54.60;;;;;;5054280;28;20445;-60
2023/03/29 01:14:33;;;;;;;3.50;0.80;;;19.30;54.60;;;;;;5073568;28;20106;-60
2023/03/29 01:16:58;;;;;;;1.00;0.40;;;19.20;54.60;;;;;;5038821;28;20056;-60
2023/03/29 01:19:26;;;;;;;1.55;0.60;;;19.20;54.60;;;;;;5072470;28;20054;-60
2023/03/29 01:22:00;;;;;;;3.05;0.70;;;19.20;54.50;;;;;;5055664;28;20055;-60
2023/03/29 01:24:29;;;;;;;3.40;0.55;;;19.20;54.60;;;;;;5054908;28;20420;-60
2023/03/29 01:27:31;;;;;;;1.42;0.70;;;19.20;54.60;;;;;;5073432;28;20037;-60
2023/03/29 01:30:02;;;;;;;0.93;0.50;;;19.20;54.50;;;;;;5055473;28;20110;-60
2023/03/29 01:32:39;;;;;;;1.13;0.50;;;19.20;54.60;;;;;;5054868;28;20036;-60
2023/03/29 01:35:09;;;;;;;1.70;0.60;;;19.20;54.60;;;;;;5055036;28;20433;-59
2023/03/29 01:37:37;;;;;;;1.83;0.80;;;19.20;54.60;;;;;;5055090;28;20075;-60
2023/03/29 01:40:04;;;;;;;2.00;0.55;;;19.20;54.60;;;;;;5054029;28;20043;-60
2023/03/29 01:42:42;;;;;;;2.20;0.75;;;19.20;54.60;;;;;;5038835;28;20056;-60
2023/03/29 01:45:12;;;;;;;1.80;0.60;;;19.20;54.60;;;;;;5072908;28;20041;-60
2023/03/29 01:47:59;;;;;;;1.15;0.50;;;19.20;54.60;;;;;;5054338;28;20311;-60
2023/03/29 01:50:37;;;;;;;1.02;0.50;;;19.10;54.50;;;;;;5055312;28;20048;-60
2023/03/29 01:53:16;;;;;;;1.27;0.60;;;19.20;54.60;;;;;;5054067;28;20090;-60
2023/03/29 01:55:45;;;;;;;3.03;0.70;;;19.10;54.60;;;;;;5056578;28;20123;-60
2023/03/29 01:58:11;;;;;;;1.30;0.55;;;19.20;54.60;;;;;;5038053;28;20130;-60
2023/03/29 02:00:37;;;;;;;3.53;0.73;;;19.10;54.60;;;;;;5054373;28;20391;-60
2023/03/29 02:03:06;;;;;;;1.13;0.47;;;19.10;54.60;;;;;;5052525;28;20044;-60
2023/03/29 02:05:32;;;;;;;1.95;0.70;;;19.10;54.60;;;;;;5037755;28;20133;-60
2023/03/29 02:07:58;;;;;;;1.85;0.47;;;19.10;54.70;;;;;;5052450;28;20076;-60
2023/03/29 02:10:24;;;;;;;1.45;0.60;;;19.10;54.70;;;;;;5054761;28;20044;-60
2023/03/29 02:12:50;;;;;;;1.77;0.50;;;19.10;54.60;;;;;;5054662;28;20044;-60
2023/03/29 02:15:20;;;;;;;2.15;0.50;;;19.10;54.60;;;;;;5071382;28;20427;-60
2023/03/29 02:17:46;;;;;;;1.58;0.70;;;19.10;54.60;;;;;;5072527;28;20051;-60
2023/03/29 02:20:16;;;;;;;1.75;0.50;;;19.10;54.60;;;;;;5072019;28;20534;-60
2023/03/29 02:22:48;;;;;;;1.60;0.60;;;19.10;54.60;;;;;;5054070;28;20048;-60
2023/03/29 02:25:14;;;;;;;1.55;0.57;;;19.10;54.60;;;;;;5072383;28;20055;-60
2023/03/29 02:27:40;;;;;;;1.70;0.60;;;19.20;54.70;;;;;;5037234;28;20048;-60
2023/03/29 02:30:07;;;;;;;0.85;0.50;;;19.20;54.70;;;;;;5054257;28;20106;-60
2023/03/29 02:33:00;;;;;;;2.20;0.70;;;19.20;54.70;;;;;;5054326;28;20098;-60
2023/03/29 02:35:35;;;;;;;2.17;0.77;;;19.20;54.70;;;;;;5069569;28;20064;-60
2023/03/29 02:38:05;;;;;;;1.92;0.50;;;19.20;54.70;;;;;;5054879;28;20047;-60
2023/03/29 02:40:31;;;;;;;1.63;0.60;;;19.20;54.70;;;;;;5038292;28;20479;-60
2023/03/29 02:42:57;;;;;;;1.10;0.50;;;19.20;54.70;;;;;;5036984;28;20087;-60
2023/03/29 02:45:22;;;;;;;0.95;0.50;;;19.20;54.70;;;;;;5037652;28;20068;-60
2023/03/29 02:47:50;;;;;;;1.33;0.47;;;19.20;54.70;;;;;;5072400;28;20044;-60
2023/03/29 02:50:16;;;;;;;1.30;0.60;;;19.30;54.80;;;;;;5071325;28;20124;-60
2023/03/29 02:52:46;;;;;;;2.50;0.70;;;19.30;54.80;;;;;;5072000;28;20036;-60
2023/03/29 02:55:13;;;;;;;1.35;0.60;;;19.30;54.80;;;;;;5053767;28;20052;-60
2023/03/29 02:57:39;;;;;;;2.00;0.65;;;19.30;54.80;;;;;;5053684;28;20514;-60
2023/03/29 03:00:08;;;;;;;2.20;0.70;;;19.30;54.70;;;;;;5071911;28;20090;-60
2023/03/29 03:02:34;;;;;;;0.90;0.40;;;19.30;54.70;;;;;;5072075;28;20123;-60
2023/03/29 03:05:00;;;;;;;1.30;0.55;;;19.30;54.70;;;;;;5071066;28;20167;-60
2023/03/29 03:07:27;;;;;;;0.80;0.50;;;19.40;54.80;;;;;;5071995;28;20079;-60
2023/03/29 03:09:53;;;;;;;2.33;0.70;;;19.40;54.80;;;;;;5071047;28;20055;-60
2023/03/29 03:12:18;;;;;;;2.00;0.60;;;19.40;54.70;;;;;;5053433;28;20056;-60
2023/03/29 03:14:44;;;;;;;0.98;0.50;;;19.40;54.70;;;;;;5072064;28;20052;-60
2023/03/29 03:17:09;;;;;;;1.30;0.60;;;19.40;54.70;;;;;;5074266;28;20825;-60
2023/03/29 03:19:35;;;;;;;0.98;0.60;;;19.40;54.70;;;;;;5075903;28;20044;-60
2023/03/29 03:22:00;;;;;;;1.67;0.60;;;19.50;54.70;;;;;;5075396;28;20040;-60
2023/03/29 03:24:27;;;;;;;1.00;0.40;;;19.50;54.80;;;;;;5074965;28;20491;-60
2023/03/29 03:26:53;;;;;;;1.33;0.77;;;19.50;54.70;;;;;;5057581;28;20044;-60
2023/03/29 03:29:18;;;;;;;1.38;0.63;;;19.50;54.70;;;;;;5075404;28;20086;-60
2023/03/29 03:31:44;;;;;;;1.67;0.50;;;19.60;54.70;;;;;;5074767;28;20373;-60
2023/03/29 03:34:10;;;;;;;1.45;0.60;;;19.60;54.70;;;;;;5074918;28;20051;-60
2023/03/29 03:36:36;;;;;;;1.27;0.50;;;19.60;54.70;;;;;;5057562;28;20048;-60
2023/03/29 03:39:04;;;;;;;1.15;0.57;;;19.60;54.70;;;;;;5074497;28;20435;-60
2023/03/29 03:41:31;;;;;;;1.15;0.73;;;19.60;54.60;;;;;;5075150;28;20068;-60
2023/03/29 03:43:57;;;;;;;0.73;0.45;;;19.60;54.60;;;;;;5075160;28;20131;-60
2023/03/29 03:46:22;;;;;;;1.23;0.60;;;19.60;54.70;;;;;;5074247;28;20131;-60
2023/03/29 03:48:48;;;;;;;0.70;0.40;;;19.60;54.60;;;;;;5075033;28;20044;-60
2023/03/29 03:51:14;;;;;;;1.45;0.60;;;19.70;54.70;;;;;;5057170;28;20037;-60
2023/03/29 03:53:39;;;;;;;1.10;0.60;;;19.70;54.60;;;;;;5074197;28;20079;-60
2023/03/29 03:56:08;;;;;;;1.95;0.70;;;19.70;54.70;;;;;;5074745;28;20474;-60
2023/03/29 03:58:35;;;;;;;1.95;0.80;;;19.70;54.70;;;;;;5057175;28;20400;-59
2023/03/29 04:01:00;;;;;;;1.40;0.50;;;19.70;54.70;;;;;;5073864;28;20532;-60
2023/03/29 04:03:26;;;;;;;1.08;0.40;;;19.70;54.70;;;;;;5074483;28;20123;-60
2023/03/29 04:05:52;;;;;;;1.15;0.50;;;19.70;54.70;;;;;;5056043;28;20048;-60
2023/03/29 04:08:18;;;;;;;1.63;0.60;;;19.70;54.70;;;;;;5073053;28;20041;-60
2023/03/29 04:10:57;;;;;;;1.10;0.50;;;19.70;54.70;;;;;;5056871;28;20129;-60
2023/03/29 04:13:23;;;;;;;1.77;0.50;;;19.70;54.60;;;;;;5074178;28;20048;-60
2023/03/29 04:15:52;;;;;;;1.02;0.50;;;19.80;54.70;;;;;;5074785;28;20051;-60
2023/03/29 04:18:18;;;;;;;1.38;0.60;;;19.80;54.60;;;;;;5074255;28;20048;-60
2023/03/29 04:20:44;;;;;;;0.90;0.40;;;19.80;54.70;;;;;;5055711;28;20044;-60
2023/03/29 04:23:10;;;;;;;1.00;0.50;;;19.80;54.60;;;;;;5074386;28;20041;-60
2023/03/29 04:25:35;;;;;;;1.00;0.50;;;19.80;54.60;;;;;;5074708;28;20041;-60
2023/03/29 04:28:01;;;;;;;1.10;0.50;;;19.80;54.60;;;;;;5055020;28;20044;-60
2023/03/29 04:30:26;;;;;;;1.45;0.57;;;19.80;54.60;;;;;;5074402;28;20047;-60
2023/03/29 04:32:52;;;;;;;0.68;0.32;;;19.80;54.60;;;;;;5074369;28;20469;-60
2023/03/29 04:35:18;;;;;;;1.50;0.55;;;19.80;54.60;;;;;;5073178;28;20044;-60
2023/03/29 04:37:43;;;;;;;1.45;0.55;;;19.80;54.60;;;;;;5056572;28;20045;-60
2023/03/29 04:40:12;;;;;;;0.85;0.50;;;19.80;54.60;;;;;;5073925;28;20053;-60
2023/03/29 04:42:41;;;;;;;0.95;0.60;;;19.80;54.60;;;;;;5055628;28;20556;-60
2023/03/29 04:45:06;;;;;;;;;;;19.80;54.60;;;;;;5074214;28;20044;-60
2023/03/29 04:47:34;;;;;;;1.77;0.57;;;19.80;54.60;;;;;;5074140;28;19931;-60
2023/03/29 04:50:01;;;;;;;0.82;0.50;;;19.80;54.60;;;;;;5072897;28;20054;-60
2023/03/29 04:52:26;;;;;;;0.73;0.40;;;19.90;54.70;;;;;;5067880;28;20140;-60
2023/03/29 04:54:52;;;;;;;1.60;0.40;;;19.80;54.50;;;;;;5054016;28;20451;-60
2023/03/29 04:57:17;;;;;;;1.05;0.55;;;19.90;54.60;;;;;;5052822;28;20037;-60
2023/03/29 04:59:43;;;;;;;1.00;0.50;;;19.90;54.60;;;;;;5054075;28;20128;-60
2023/03/29 05:02:08;;;;;;;0.93;0.57;;;19.90;54.60;;;;;;5053177;28;20036;-60
2023/03/29 05:04:34;;;;;;;1.75;0.60;;;19.90;54.60;;;;;;5052853;28;20064;-60
2023/03/29 05:07:01;;;;;;;1.08;0.50;;;19.90;54.60;;;;;;5053503;28;20538;-60
2023/03/29 05:09:26;;;;;;;1.52;0.60;;;19.90;54.60;;;;;;5053033;28;20083;-60
2023/03/29 05:11:52;;;;;;;1.77;0.70;;;19.90;54.60;;;;;;5053427;28;20049;-60
2023/03/29 05:14:18;;;;;;;1.20;0.50;;;19.90;54.60;;;;;;5053213;28;20098;-60
2023/03/29 05:16:43;;;;;;;1.55;0.50;;;19.90;54.50;;;;;;5052511;28;20762;-60
2023/03/29 05:19:10;;;;;;;1.02;0.50;;;19.90;54.60;;;;;;5035376;28;20073;-60
2023/03/29 05:21:35;;;;;;;1.15;0.55;;;19.90;54.50;;;;;;5053622;28;20093;-61
2023/03/29 05:24:01;;;;;;;1.33;0.60;;;19.90;54.50;;;;;;5051724;28;20052;-60
2023/03/29 05:26:27;;;;;;;2.25;0.60;;;19.90;54.60;;;;;;5053513;28;20041;-60
2023/03/29 05:28:52;;;;;;;1.05;0.60;;;19.90;54.50;;;;;;5035454;28;20040;-60
2023/03/29 05:31:18;;;;;;;1.33;0.50;;;19.90;54.50;;;;;;5034456;28;20132;-60
2023/03/29 05:33:46;;;;;;;1.88;0.45;;;20.00;54.60;;;;;;5035520;28;20167;-60
2023/03/29 05:36:13;;;;;;;1.17;0.47;;;20.00;54.60;;;;;;5052733;28;20049;-60
2023/03/29 05:38:43;;;;;;;0.95;0.50;;;20.00;54.60;;;;;;5051518;28;20055;-59
2023/03/29 05:41:09;;;;;;;0.63;0.50;;;20.00;54.60;;;;;;5034651;28;20041;-60
2023/03/29 05:43:35;;;;;;;2.83;0.65;;;20.00;54.50;;;;;;5053280;28;20120;-60
2023/03/29 05:46:00;;;;;;;0.55;0.38;;;19.90;54.50;;;;;;5051625;28;20041;-60
2023/03/29 05:48:27;;;;;;;1.35;0.50;;;20.00;54.50;;;;;;5053031;28;20049;-60
2023/03/29 05:50:54;;;;;;;1.02;0.60;;;19.90;54.50;;;;;;5035129;28;20041;-60
2023/03/29 05:53:21;;;;;;;2.10;0.70;;;19.90;54.50;;;;;;5051954;28;20072;-60
2023/03/29 05:55:46;;;;;;;1.00;0.47;;;20.00;54.60;;;;;;5052629;28;20408;-60
2023/03/29 05:58:12;;;;;;;1.42;0.50;;;19.90;54.50;;;;;;5067043;28;20139;-60
2023/03/29 06:00:39;;;;;;;0.82;0.43;;;20.00;54.60;;;;;;5071400;28;20449;-59
2023/03/29 06:03:04;;;;;;;1.13;0.55;;;19.90;54.50;;;;;;5053341;28;20045;-60
2023/03/29 06:05:30;;;;;;;0.80;0.40;;;20.00;54.60;;;;;;5034800;28;20500;-60
2023/03/29 06:07:56;;;;;;;1.17;0.60;;;19.90;54.50;;;;;;5034219;28;20045;-60
2023/03/29 06:10:23;;;;;;;2.03;0.50;;;20.00;54.60;;;;;;5052565;28;20055;-62
2023/03/29 06:12:49;;;;;;;2.00;0.77;;;19.90;54.50;;;;;;5051595;28;20099;-60
2023/03/29 06:15:15;;;;;;;3.10;0.57;;;20.00;54.60;;;;;;5052367;28;20072;-60
2023/03/29 06:17:41;;;;;;;3.33;0.82;;;20.00;54.60;;;;;;5052611;28;20041;-60
2023/03/29 06:20:10;;;;;;;1.48;0.70;;;20.00;54.60;;;;;;5051561;28;20128;-60
2023/03/29 06:22:38;;;;;;;1.73;0.60;;;20.00;54.60;;;;;;5052764;28;20049;-61
2023/03/29 06:25:05;;;;;;;1.55;0.88;;;20.00;54.70;;;;;;5034524;28;20500;-60
2023/03/29 06:27:31;;;;;;;1.60;0.63;;;20.00;54.70;;;;;;5051874;28;20064;-60
2023/03/29 06:29:58;;;;;;;1.80;0.68;;;20.00;54.70;;;;;;5052266;28;20041;-60
2023/03/29 06:32:24;;;;;;;0.98;0.57;;;20.00;54.70;;;;;;5034410;28;20123;-60
2023/03/29 06:34:50;;;;;;;2.22;0.70;;;20.00;54.70;;;;;;5051789;28;20137;-60
2023/03/29 06:37:16;;;;;;;3.20;0.73;;;20.00;54.70;;;;;;5051891;28;20033;-60
2023/03/29 06:39:41;;;;;;;0.95;0.55;;;20.00;54.80;;;;;;5052197;28;20045;-60
2023/03/29 06:42:07;;;;;;;3.60;0.75;;;20.00;54.90;;;;;;5051093;28;20037;-59
2023/03/29 06:44:32;;;;;;;2.63;0.70;;;20.00;55.10;;;;;;5052059;28;20119;-60
2023/03/29 06:46:58;;;;;;;1.83;0.65;;;20.00;55.20;;;;;;5034070;28;20044;-60
2023/03/29 06:49:25;;;;;;;2.50;0.70;;;20.00;55.30;;;;;;5036930;28;20045;-59
2023/03/29 06:51:51;;;;;;;3.17;0.77;;;20.10;55.50;;;;;;5064879;28;20041;-60
2023/03/29 06:54:17;;;;;;;4.15;0.60;;;20.10;55.70;;;;;;5072202;28;20045;-60
2023/03/29 06:56:44;;;;;;;1.60;0.57;;;20.10;55.90;;;;;;5073088;28;20055;-60
2023/03/29 06:59:10;;;;;;;2.72;0.45;;;20.10;56.00;;;;;;5063582;28;20041;-60
2023/03/29 07:01:36;;;;;;;4.63;0.70;;;20.10;56.10;;;;;;5056081;28;20102;-60
2023/03/29 07:04:06;;;;;;;3.45;0.68;;;20.10;56.20;;;;;;5059845;28;20115;-61
2023/03/29 07:06:32;;;;;;;2.88;0.80;;;20.10;56.30;;;;;;5076221;28;20044;-61
2023/03/29 07:09:00;;;;;;;1.65;0.60;;;20.20;56.40;;;;;;5075026;28;20051;-61
2023/03/29 07:11:25;;;;;;;1.27;0.55;;;20.20;56.50;;;;;;5075704;28;20124;-61
2023/03/29 07:13:51;;;;;;;1.10;0.43;;;20.20;56.50;;;;;;5075890;28;20146;-61
2023/03/29 07:16:18;;;;;;;2.22;0.50;;;20.20;56.50;;;;;;5074461;28;20489;-59
2023/03/29 07:18:43;;;;;;;4.80;0.52;;;20.20;56.60;;;;;;5075772;28;20051;-60
2023/03/29 07:21:10;;;;;;;3.30;0.90;;;20.20;56.60;;;;;;5075370;28;20045;-61
2023/03/29 07:23:36;;;;;;;1.60;0.60;;;20.20;56.50;;;;;;5074902;28;20040;-62
2023/03/29 07:26:02;;;;;;;1.65;0.88;;;20.30;56.60;;;;;;5057002;28;20056;-61
2023/03/29 07:28:28;;;;;;;1.83;0.55;;;20.20;56.40;;;;;;5075706;28;20048;-62
2023/03/29 07:31:01;;;;;;;2.53;0.57;;;20.30;56.50;;;;;;5074778;28;20044;-62
2023/03/29 07:33:26;;;;;;;1.33;0.60;;;20.30;56.40;;;;;;5075519;28;20095;-62
2023/03/29 07:35:52;;;;;;;2.47;0.73;;;20.30;56.40;;;;;;5075545;28;20492;-61
2023/03/29 07:38:17;;;;;;;2.80;0.77;;;20.30;56.30;;;;;;5074137;28;20400;-61
2023/03/29 07:40:43;;;;;;;3.67;0.80;;;20.30;56.20;;;;;;5075232;28;20047;-62
2023/03/29 07:43:09;;;;;;;2.08;0.50;;;20.30;56.10;;;;;;5074854;28;20051;-62
2023/03/29 07:45:35;;;;;;;1.60;0.55;;;20.30;56.20;;;;;;5074526;28;20072;-62
2023/03/29 07:48:01;;;;;;;4.03;0.63;;;20.30;56.20;;;;;;5074894;28;20072;-62
2023/03/29 07:50:26;;;;;;;3.97;0.60;;;20.30;56.10;;;;;;5075358;28;20040;-62
2023/03/29 07:52:52;;;;;;;4.43;0.70;;;20.30;56.10;;;;;;5074566;28;20051;-62
2023/03/29 07:55:18;;;;;;;2.88;0.60;;;20.30;56.10;;;;;;5074838;28;20048;-62
2023/03/29 07:57:43;;;;;;;2.80;0.50;;;20.30;56.10;;;;;;5075248;28;20120;-62
2023/03/29 08:00:18;;;;;;;3.38;0.73;;;20.30;56.10;;;;;;5073907;28;20045;-63
2023/03/29 08:02:45;;;;;;;1.83;0.63;;;20.30;56.10;;;;;;5074339;28;20045;-62
2023/03/29 08:05:14;;;;;;;4.72;0.70;;;20.30;56.10;;;;;;5074492;28;20052;-62
2023/03/29 08:07:40;;;;;;;1.58;0.60;;;20.30;56.00;;;;;;5074749;28;20041;-63
2023/03/29 08:10:08;;;;;;;1.65;0.68;;;20.30;56.00;;;;;;5074514;28;20090;-62
2023/03/29 08:12:34;;;;;;;1.97;0.77;;;20.30;56.00;;;;;;5073891;28;20558;-63
2023/03/29 08:14:59;;;;;;;2.42;0.65;;;20.30;55.90;;;;;;5074539;28;20056;-62
2023/03/29 08:17:25;;;;;;;2.20;0.60;;;20.30;55.90;;;;;;5074541;28;20036;-62
2023/03/29 08:19:51;;;;;;;2.03;0.88;;;20.30;55.90;;;;;;5074126;28;20122;-62
2023/03/29 08:22:16;;;;;;;1.05;0.50;;;20.30;55.90;;;;;;5074059;28;20052;-62
2023/03/29 08:24:42;;;;;;;2.65;0.68;;;20.30;55.90;;;;;;5074541;28;20044;-62
2023/03/29 08:27:08;;;;;;;3.50;0.70;;;20.30;55.90;;;;;;5073603;28;20041;-62
2023/03/29 08:29:33;;;;;;;2.50;0.60;;;20.30;55.90;;;;;;5074647;28;20041;-62
2023/03/29 08:31:59;;;;;;;2.22;0.80;;;20.30;55.90;;;;;;5055963;28;20041;-63
2023/03/29 08:34:24;;;;;;;2.05;0.70;;;20.30;56.50;;;;;;5073494;28;20098;-62
2023/03/29 08:36:51;;;;;;;1.50;0.63;;;20.20;55.80;;;;;;5056543;28;20044;-62
2023/03/29 08:39:17;;;;;;;1.38;0.50;;;20.30;55.80;;;;;;5074194;28;20217;-62
2023/03/29 08:41:48;;;;;;;2.05;0.70;;;20.30;55.80;;;;;;5073672;28;20407;-62
2023/03/29 08:44:37;;;;;;;1.83;0.65;;;20.30;55.80;;;;;;5073690;28;20054;-62
2023/03/29 08:47:40;;;;;;;1.90;0.85;;;20.30;55.80;;;;;;5058557;28;20057;-62
2023/03/29 08:50:06;;;;;;;1.75;0.43;;;20.30;55.70;;;;;;5039067;28;20049;-62
2023/03/29 08:52:41;;;;;;;1.60;0.73;;;20.30;55.70;;;;;;5039819;28;20039;-62
2023/03/29 08:55:12;;;;;;;2.20;0.50;;;20.30;55.70;;;;;;5054946;28;20063;-62
2023/03/29 08:57:44;;;;;;;0.80;0.50;;;20.30;55.70;;;;;;5039790;28;20385;-63
2023/03/29 09:00:50;;;;;;;1.23;0.57;;;20.30;55.70;;;;;;5023209;28;20047;-63
2023/03/29 09:03:24;;;;;;;1.73;0.50;;;20.30;55.70;;;;;;5040687;28;20048;-62
2023/03/29 09:06:07;;;;;;;0.73;0.50;;;20.30;55.70;;;;;;5056891;28;20051;-62
2023/03/29 09:08:38;;;;;;;1.48;0.50;;;20.30;55.70;;;;;;5057722;28;20106;-62
2023/03/29 09:11:13;;;;;;;1.85;0.70;;;20.30;55.70;;;;;;5038709;28;20056;-63
2023/03/29 09:13:45;;;;;;;1.17;0.60;;;20.30;55.70;;;;;;5054698;28;20078;-63
2023/03/29 09:16:17;;;;;;;1.25;0.80;;;20.30;55.70;;;;;;5054237;28;20040;-62
2023/03/29 09:19:08;;;;;;;1.20;0.50;;;20.30;55.60;;;;;;5069233;28;20182;-63
2023/03/29 09:21:58;;;;;;;1.58;0.65;;;20.30;55.60;;;;;;5051820;28;20410;-62
2023/03/29 09:24:53;;;;;;;3.60;0.70;;;20.30;55.60;;;;;;5036129;28;20079;-62
2023/03/29 09:27:26;;;;;;;1.50;0.60;;;20.30;55.70;;;;;;5052129;28;20144;-62
2023/03/29 09:30:18;;;;;;;2.55;0.73;;;20.30;55.80;;;;;;5052713;28;20045;-63
2023/03/29 09:32:46;;;;;;;1.30;0.50;;;20.30;55.80;;;;;;5053201;28;20080;-63
2023/03/29 09:35:29;;;;;;;1.02;0.60;;;20.40;55.90;;;;;;5053016;28;20107;-62
2023/03/29 09:37:55;;;;;;;2.50;0.70;;;20.40;55.90;;;;;;5052310;28;20052;-62
2023/03/29 09:40:33;;;;;;;1.20;0.63;;;20.40;56.00;;;;;;5052952;28;20047;-62
2023/03/29 09:42:58;;;;;;;2.28;0.70;;;20.40;55.90;;;;;;5035006;28;20163;-62
2023/03/29 09:45:24;;;;;;;2.85;0.75;;;20.40;55.90;;;;;;5034482;28;20140;-63
2023/03/29 09:47:52;;;;;;;2.75;0.52;;;20.40;56.60;;;;;;5053012;28;20091;-62
2023/03/29 09:50:19;;;;;;;;;;;20.40;55.90;;;;;;5035473;28;20072;-62
2023/03/29 09:52:45;;;;;;;1.58;0.55;;;20.40;55.90;;;;;;5017936;28;20280;-62
2023/03/29 09:55:14;;;;;;;1.98;0.70;;;20.40;55.90;;;;;;5052705;28;20491;-63
2023/03/29 09:57:40;;;;;;;1.42;0.75;;;20.40;56.00;;;;;;5035050;28;20084;-63
2023/03/29 10:00:08;;;;;;;2.95;0.60;;;20.40;56.00;;;;;;5033945;28;20064;-63
2023/03/29 10:02:33;;;;;;;1.67;0.70;;;20.40;56.00;;;;;;5018762;28;20081;-62
2023/03/29 10:05:03;;;;;;;1.67;0.70;;;20.40;56.10;;;;;;5033616;28;20080;-63
2023/03/29 10:07:43;;;;;;;2.13;0.50;;;20.40;56.70;;;;;;5052895;28;20041;-62
2023/03/29 10:10:10;;;;;;;2.53;0.60;;;20.40;56.10;;;;;;5050984;28;20045;-63
2023/03/29 10:12:36;;;;;;;1.70;0.68;;;20.40;56.10;;;;;;5051698;28;20049;-62
2023/03/29 10:15:02;;;;;;;2.35;0.63;;;20.30;56.00;;;;;;5034808;28;20122;-63
2023/03/29 10:17:32;;;;;;;2.38;0.50;;;20.40;56.10;;;;;;5034950;28;20076;-62
2023/03/29 10:20:00;;;;;;;1.67;0.77;;;20.40;56.10;;;;;;5069526;28;20048;-62
2023/03/29 10:22:30;;;;;;;1.92;0.70;;;20.30;56.00;;;;;;5072599;28;20032;-62
2023/03/29 10:24:56;;;;;;;1.77;0.68;;;20.30;56.00;;;;;;5071180;28;20083;-62
2023/03/29 10:27:30;;;;;;;3.25;0.85;;;20.30;56.00;;;;;;5071672;28;20063;-62
2023/03/29 10:29:58;;;;;;;1.67;0.80;;;20.30;56.00;;;;;;5055017;28;20094;-62
2023/03/29 10:32:32;;;;;;;2.10;0.60;;;20.30;56.00;;;;;;5054462;28;20080;-62
2023/03/29 10:35:19;;;;;;;2.63;0.60;;;20.30;56.10;;;;;;5053664;28;20097;-62
2023/03/29 10:37:49;;;;;;;1.67;0.80;;;20.30;56.10;;;;;;5039751;28;20040;-62
2023/03/29 10:40:27;;;;;;;2.20;0.60;;;20.30;56.20;;;;;;5052975;28;20055;-62
2023/03/29 10:42:52;;;;;;;1.48;0.60;;;20.30;56.20;;;;;;5062916;28;20110;-60
2023/03/29 10:45:33;;;;;;;1.85;0.70;;;20.30;56.30;;;;;;5046801;28;20476;-60
2023/03/29 10:47:59;;;;;;;3.35;0.90;;;20.30;56.60;;;;;;5048013;28;20036;-60
2023/03/29 10:50:36;;;;;;;1.92;0.80;;;20.30;56.60;;;;;;5051910;28;20400;-60
2023/03/29 10:53:03;;;;;;;3.28;0.80;;;20.30;56.70;;;;;;5034059;28;20040;-60
2023/03/29 10:55:33;;;;;;;2.13;0.88;;;20.30;56.70;;;;;;5033606;28;20044;-60
2023/03/29 10:58:12;;;;;;;2.60;0.80;;;20.30;56.80;;;;;;5033769;28;20055;-62
2023/03/29 11:00:51;;;;;;;3.08;1.02;;;20.30;56.90;;;;;;5051523;28;20048;-61
2023/03/29 11:03:49;;;;;;;2.80;0.80;;;20.30;56.90;;;;;;5032797;28;20416;-60
2023/03/29 11:06:24;;;;;;;3.90;0.63;;;20.30;57.10;;;;;;5040536;28;20059;-60
2023/03/29 11:08:57;;;;;;;4.15;0.82;;;20.30;57.10;;;;;;5039043;28;20041;-60
2023/03/29 11:11:54;;;;;;;3.72;0.80;;;20.30;57.20;;;;;;5035312;28;20115;-60
2023/03/29 11:14:45;;;;;;;2.92;0.80;;;20.30;57.10;;;;;;5070709;28;20400;-60
2023/03/29 11:17:24;;;;;;;4.15;1.05;;;20.40;57.20;;;;;;5059431;28;20488;-60
2023/03/29 11:20:01;;;;;;;1.30;0.60;;;20.30;57.10;;;;;;5041941;28;20519;-60
2023/03/29 11:22:48;;;;;;;1.60;0.70;;;20.30;57.20;;;;;;5034726;28;20084;-60
2023/03/29 11:25:36;;;;;;;2.27;1.00;;;20.30;57.30;;;;;;5033400;28;20041;-60
2023/03/29 11:28:16;;;;;;;2.42;0.80;;;20.40;57.30;;;;;;5066950;28;20377;-61
2023/03/29 11:30:50;;;;;;;2.05;0.70;;;20.40;58.00;;;;;;5070363;28;20106;-61
2023/03/29 11:33:26;;;;;;;1.85;0.80;;;20.40;57.20;;;;;;5070170;28;20032;-61
2023/03/29 11:36:01;;;;;;;4.20;0.70;;;20.40;57.20;;;;;;5071591;28;20084;-61
2023/03/29 11:38:38;;;;;;;1.98;0.80;;;20.40;57.00;;;;;;5073687;28;20044;-61
2023/03/29 11:41:16;;;;;;;5.07;1.13;;;20.40;57.00;;;;;;5074178;28;20045;-61
2023/03/29 11:43:41;;;;;;;4.13;1.15;;;20.40;56.80;;;;;;5074821;28;20049;-62
2023/03/29 11:46:11;;;;;;;6.05;1.63;;;20.40;56.80;;;;;;5057093;28;20101;-61
2023/03/29 11:49:03;;;;;;;5.30;1.73;;;20.40;56.70;;;;;;5073915;28;20051;-61
2023/03/29 11:51:36;;;;;;;8.18;2.22;;;20.40;56.40;;;;;;5073426;28;20036;-61
2023/03/29 11:54:15;;;;;;;9.88;2.75;;;20.40;56.30;;;;;;5056991;28;20470;-59
2023/03/29 11:56:46;;;;;;;6.97;2.78;;;20.40;56.00;;;;;;5070935;28;20060;-61
2023/03/29 11:59:24;;;;;;;8.63;2.83;;;20.30;55.70;;;;;;5055531;28;20111;-61
2023/03/29 12:02:17;;;;;;;9.10;2.50;;;20.40;55.70;;;;;;5041854;28;20052;-62
2023/03/29 12:04:51;;;;;;;7.22;2.30;;;20.40;55.50;;;;;;5056426;28;20132;-62
2023/03/29 12:07:26;;;;;;;4.50;2.10;;;20.30;55.40;;;;;;5056890;28;20048;-62
2023/03/29 12:10:01;;;;;;;7.38;2.38;;;20.40;55.40;;;;;;5075086;28;20044;-63
2023/03/29 12:12:46;;;;;;;7.72;1.90;;;20.40;55.30;;;;;;5056043;28;20071;-62
2023/03/29 12:15:19;;;;;;;8.23;2.58;;;20.40;55.10;;;;;;5056309;28;20044;-61
2023/03/29 12:18:01;;;;;;;4.10;2.00;;;20.40;55.10;;;;;;5057074;28;20510;-62
2023/03/29 12:20:30;;;;;;;4.68;2.00;;;20.40;55.00;;;;;;5039400;28;20491;-62
2023/03/29 12:22:56;;;;;;;5.43;1.75;;;20.40;54.90;;;;;;5057098;28;20095;-62
2023/03/29 12:25:32;;;;;;;4.03;1.60;;;20.30;55.10;;;;;;5056334;28;20037;-62
2023/03/29 12:28:06;;;;;;;4.15;1.83;;;20.40;54.70;;;;;;5039583;28;20472;-62
2023/03/29 12:30:35;;;;;;;7.35;2.17;;;20.40;54.70;;;;;;5040292;28;20080;-63
2023/03/29 12:33:15;;;;;;;4.50;1.90;;;20.40;54.60;;;;;;5073501;28;20095;-62
2023/03/29 12:36:07;;;;;;;3.83;1.52;;;20.40;54.50;;;;;;5056413;28;20044;-62
2023/03/29 12:38:33;;;;;;;5.68;1.75;;;20.40;54.40;;;;;;5067452;28;20110;-62
2023/03/29 12:41:00;;;;;;;3.65;1.70;;;20.40;54.40;;;;;;5055687;28;20484;-62
2023/03/29 12:43:38;;;;;;;5.63;1.50;;;20.40;54.40;;;;;;5074350;28;20065;-62
2023/03/29 12:46:18;;;;;;;5.35;1.60;;;20.40;54.30;;;;;;5056342;28;20051;-62
2023/03/29 12:48:46;;;;;;;4.20;1.70;;;20.40;54.20;;;;;;5038651;28;20090;-62
2023/03/29 12:51:18;;;;;;;4.93;1.63;;;20.40;54.20;;;;;;5073972;28;20045;-62
2023/03/29 12:53:52;;;;;;;4.72;1.40;;;20.40;54.20;;;;;;5055682;28;20115;-62
2023/03/29 12:56:22;;;;;;;5.00;1.40;;;20.40;54.30;;;;;;5056190;28;20102;-62
2023/03/29 12:59:04;;;;;;;4.40;1.35;;;20.40;54.30;;;;;;5074255;28;20106;-62
2023/03/29 13:01:34;;;;;;;2.55;1.30;;;20.40;55.00;;;;;;5071983;28;20083;-62